GMTA

Cherif Al Idrissi Airport

Al Hoceima, Morocco
METAR GMTA 201500Z 36010KT 9999 FEW020TCU 16/13 Q1014 NOSIG
Observed Flight Rules
Feb-20 @ 15:00 UTC (22 hours ago) Visual Flight Rules
Wind Visibility Clouds
360° at 10 knots 10,000+ meters
  • Few at 2,000' AGL
Temperatures Readings
Current 16°C / 61°F
Dewpoint 13°C / 55°F
Humidity 83%
Altimeter 29.94" Hg
Pressure 1014 hPa
Elevation 14
METAR GMTA 201500Z 36010KT 9999 FEW020TCU 16/13 Q1014 NOSIG
Observed Flight Rules
Feb-20 @ 15:00 UTC
(22 hours ago)
VFR
Wind Visibility
360° at 10 knots 10,000+ meters
Clouds
  • Few at 2,000' AGL
Temperature Dewpoint
16°C / 61°F 13°C / 55°F
Humidity Altimeter Pressure
83% 29.94" Hg 1014 hPa